createdAt,value
2016-10-19T19:15:12.595Z,920.08
2016-10-19T19:15:24.743Z,920.07
2016-10-19T19:15:34.999Z,920.08
2016-10-19T19:15:51.764Z,920.1
2016-10-19T19:16:08.613Z,919.99
2016-10-19T19:16:25.568Z,920.07
2016-10-19T19:16:42.391Z,920.06
2016-10-19T19:16:59.739Z,920.1
2016-10-19T19:17:16.518Z,920.09
2016-10-19T19:17:33.297Z,920.08
2016-10-19T19:17:50.102Z,920.12
2016-10-19T19:18:22.077Z,920.11
2016-10-19T19:18:38.803Z,920.11
2016-10-19T19:18:55.545Z,920.15
2016-10-19T19:19:12.681Z,920.14
2016-10-19T19:19:29.585Z,920.18
2016-10-19T19:19:46.421Z,920.16
2016-10-19T19:20:03.729Z,920.12
2016-10-19T19:20:20.475Z,920.13
2016-10-19T19:20:37.293Z,920.13
2016-10-19T19:20:54.021Z,920.13
2016-10-19T19:21:10.772Z,920.2
2016-10-19T19:21:27.519Z,920.23
2016-10-19T19:21:44.282Z,920.24
2016-10-19T19:22:01.016Z,920.27
2016-10-19T19:22:17.754Z,920.27
2016-10-19T19:22:34.531Z,920.24
2016-10-19T19:22:51.293Z,920.2
2016-10-19T19:23:08.088Z,920.14
2016-10-19T19:23:24.867Z,920.23
2016-10-19T19:23:41.669Z,920.24
2016-10-19T19:23:58.998Z,920.25
2016-10-19T19:24:16.255Z,920.17
2016-10-19T19:24:32.996Z,920.22
2016-10-19T19:24:49.759Z,920.22
2016-10-19T19:25:06.504Z,920.27
2016-10-19T19:25:23.262Z,920.2
2016-10-19T19:25:40.022Z,920.25
2016-10-19T19:25:56.861Z,920.21
2016-10-19T19:26:13.606Z,920.2
2016-10-19T19:26:30.407Z,920.24
2016-10-19T19:26:47.142Z,920.2
2016-10-19T19:27:03.874Z,920.21
2016-10-19T19:27:20.686Z,920.18
2016-10-19T19:27:37.454Z,920.21
2016-10-19T19:27:54.209Z,920.23
2016-10-19T19:28:10.979Z,920.2
2016-10-19T19:28:27.703Z,920.23
2016-10-19T19:28:44.458Z,920.22
2016-10-19T19:29:01.223Z,920.22
2016-10-19T19:29:17.986Z,920.29
2016-10-19T19:29:34.834Z,920.27
2016-10-19T19:29:51.656Z,920.27
2016-10-19T19:30:08.417Z,920.26
2016-10-19T19:30:25.260Z,920.24
2016-10-19T19:30:42.064Z,920.25
2016-10-19T19:31:00.787Z,920.25
2016-10-19T19:31:17.565Z,920.24
2016-10-19T19:31:34.371Z,920.26
2016-10-19T19:31:51.161Z,920.29
2016-10-19T19:32:10.618Z,920.25
2016-10-19T19:32:27.381Z,920.21
2016-10-19T19:32:44.170Z,920.29
2016-10-19T19:33:01.458Z,920.31
2016-10-19T19:33:18.293Z,920.27
2016-10-19T19:33:35.134Z,920.28
2016-10-19T19:33:52.056Z,920.26
2016-10-19T19:34:08.866Z,920.3
2016-10-19T19:34:25.617Z,920.25
2016-10-19T19:34:42.394Z,920.24
2016-10-19T19:34:59.121Z,920.28
2016-10-19T19:35:16.417Z,920.23
2016-10-19T19:35:33.205Z,920.22
2016-10-19T19:35:49.978Z,920.2
2016-10-19T19:36:06.717Z,920.23
2016-10-19T19:36:23.449Z,920.17
2016-10-19T19:36:40.757Z,920.21
2016-10-19T19:36:57.554Z,920.14
2016-10-19T19:37:14.344Z,920.14
2016-10-19T19:37:31.080Z,920.12
2016-10-19T19:37:47.876Z,920.17
2016-10-19T19:38:04.618Z,920.14
2016-10-19T19:38:21.361Z,920.1
2016-10-19T19:38:38.169Z,920.08
2016-10-19T19:38:54.932Z,920.14
2016-10-19T19:39:11.758Z,920.12
2016-10-19T19:39:28.515Z,920.11
2016-10-19T19:39:45.263Z,920.15
2016-10-19T19:40:02.031Z,920.07
2016-10-19T19:40:18.810Z,920.11
2016-10-19T19:40:35.611Z,920.13
2016-10-19T19:40:52.416Z,920.1
2016-10-19T19:41:09.177Z,920.09
2016-10-19T19:41:25.932Z,920.03
2016-10-19T19:41:42.683Z,920.06
2016-10-19T19:41:59.459Z,920.11
2016-10-19T19:42:16.214Z,920.06
2016-10-19T19:42:32.964Z,920.1
2016-10-19T19:42:49.729Z,920.1
2016-10-19T19:43:06.487Z,920.07
2016-10-19T19:43:23.748Z,920.09
2016-10-19T19:43:40.498Z,920.09
2016-10-19T19:43:57.266Z,920.07
2016-10-19T19:44:14.018Z,920.05
2016-10-19T19:44:30.781Z,920.05
2016-10-19T19:44:48.033Z,920.02
2016-10-19T19:45:04.808Z,920.03
2016-10-19T19:45:21.555Z,920
2016-10-19T19:45:38.323Z,920.03
2016-10-19T19:45:55.093Z,920.04
2016-10-19T19:46:11.838Z,920.01
2016-10-19T19:46:29.113Z,920.04
2016-10-19T19:46:45.983Z,920.04
2016-10-19T19:47:02.887Z,919.98
2016-10-19T19:47:19.720Z,920.02
2016-10-19T19:47:36.463Z,920.01
2016-10-19T19:47:53.225Z,920.05
2016-10-19T19:48:09.987Z,919.99
2016-10-19T19:48:26.748Z,920.01
2016-10-19T19:48:43.492Z,920.05
2016-10-19T19:49:00.287Z,919.98
2016-10-19T19:49:17.262Z,919.98
2016-10-19T19:49:34.050Z,920.02
2016-10-19T19:49:50.806Z,920
2016-10-19T19:50:22.044Z,919.98
2016-10-19T19:50:38.815Z,919.97
2016-10-19T19:50:55.555Z,919.98
2016-10-19T19:51:12.297Z,919.97
2016-10-19T19:51:29.093Z,919.99
2016-10-19T19:51:45.865Z,919.96
2016-10-19T19:52:02.665Z,919.96
2016-10-19T19:52:19.442Z,919.94
2016-10-19T19:52:36.198Z,919.91
2016-10-19T19:52:52.957Z,920.02
2016-10-19T19:53:09.730Z,919.94
2016-10-19T19:53:26.488Z,919.92
2016-10-19T19:53:43.376Z,919.96
2016-10-19T19:54:00.116Z,919.96
2016-10-19T19:54:16.899Z,919.95
2016-10-19T19:54:33.694Z,919.98
2016-10-19T19:54:50.445Z,919.97
2016-10-19T19:55:07.207Z,919.97
2016-10-19T19:55:23.938Z,920.01
2016-10-19T19:55:40.680Z,919.98
2016-10-19T19:55:57.423Z,920.01
2016-10-19T19:56:14.198Z,920.02
2016-10-19T19:56:31.623Z,920
2016-10-19T19:56:48.407Z,919.98
2016-10-19T19:57:05.182Z,920
2016-10-19T19:57:21.958Z,920
2016-10-19T19:57:38.746Z,920
2016-10-19T19:57:55.487Z,920.01
2016-10-19T19:58:12.254Z,920.01
2016-10-19T19:58:29.052Z,920.03
2016-10-19T19:58:46.343Z,920
2016-10-19T19:59:03.070Z,919.97
2016-10-19T19:59:19.824Z,919.97
2016-10-19T19:59:36.826Z,919.97
2016-10-19T19:59:53.601Z,919.98
2016-10-19T20:00:10.861Z,919.93
2016-10-19T20:00:27.605Z,919.95
2016-10-19T20:00:44.358Z,920
2016-10-19T20:01:01.091Z,919.96
2016-10-19T20:01:17.900Z,919.94
2016-10-19T20:01:34.678Z,919.96
2016-10-19T20:01:51.446Z,919.94
2016-10-19T20:02:08.182Z,920
2016-10-19T20:02:24.914Z,919.96
2016-10-19T20:02:42.175Z,919.99
2016-10-19T20:02:58.925Z,919.94
2016-10-19T20:03:15.723Z,919.99
2016-10-19T20:03:32.457Z,920
2016-10-19T20:03:49.263Z,920
2016-10-19T20:04:06.051Z,919.98
2016-10-19T20:04:22.876Z,919.99
2016-10-19T20:04:39.643Z,919.98
2016-10-19T20:04:56.375Z,920.03
2016-10-19T20:05:13.148Z,920
2016-10-19T20:05:29.867Z,920.03
2016-10-19T20:05:46.618Z,920.02
2016-10-19T20:06:03.394Z,920.01
2016-10-19T20:06:20.166Z,920.03
2016-10-19T20:06:37.453Z,920.03
2016-10-19T20:06:54.252Z,919.99
2016-10-19T20:07:11.515Z,920.05
2016-10-19T20:07:28.842Z,920
2016-10-19T20:07:45.579Z,920.04
2016-10-19T20:08:02.382Z,920.05
2016-10-19T20:08:19.154Z,920.03
2016-10-19T20:08:35.920Z,920.05
2016-10-19T20:08:53.297Z,920.03
2016-10-19T20:09:10.081Z,920.02
2016-10-19T20:09:27.510Z,920.02
2016-10-19T20:09:44.297Z,920.04
2016-10-19T20:10:01.586Z,920.07
2016-10-19T20:10:18.342Z,920.01
2016-10-19T20:10:35.096Z,920.01
2016-10-19T20:10:52.356Z,920.06
2016-10-19T20:11:09.115Z,920.03
2016-10-19T20:11:25.868Z,920.06
2016-10-19T20:11:42.604Z,920.02
2016-10-19T20:11:59.374Z,920.03
2016-10-19T20:12:16.138Z,920.08
2016-10-19T20:12:32.867Z,920.07
2016-10-19T20:12:49.631Z,920.06
2016-10-19T20:13:06.359Z,920.07
2016-10-19T20:13:23.101Z,920.1
2016-10-19T20:13:39.863Z,920.07
2016-10-19T20:13:56.617Z,920.11
2016-10-19T20:14:13.402Z,920.13
2016-10-19T20:14:30.179Z,920.11
2016-10-19T20:14:46.975Z,920.14
2016-10-19T20:15:03.739Z,920.11
2016-10-19T20:15:20.538Z,920.17
2016-10-19T20:15:37.846Z,920.16
2016-10-19T20:15:54.593Z,920.15
2016-10-19T20:16:11.362Z,920.15
2016-10-19T20:16:28.126Z,920.18
2016-10-19T20:16:44.880Z,920.2
2016-10-19T20:17:02.120Z,920.2
2016-10-19T20:17:18.868Z,920.21
2016-10-19T20:17:35.627Z,920.21
2016-10-19T20:17:52.381Z,920.23
2016-10-19T20:18:09.129Z,920.26
2016-10-19T20:18:25.866Z,920.26
2016-10-19T20:18:42.635Z,920.23
2016-10-19T20:18:59.917Z,920.24
2016-10-19T20:19:16.659Z,920.25
2016-10-19T20:19:33.434Z,920.23
2016-10-19T20:19:50.229Z,920.26
2016-10-19T20:20:06.972Z,920.26
2016-10-19T20:20:23.719Z,920.21
2016-10-19T20:20:40.478Z,920.28
2016-10-19T20:20:57.227Z,920.21
2016-10-19T20:21:13.970Z,920.23
2016-10-19T20:21:30.706Z,920.25
2016-10-19T20:21:47.455Z,920.26
2016-10-19T20:22:04.256Z,920.28
2016-10-19T20:22:20.999Z,920.25
2016-10-19T20:22:37.763Z,920.24
2016-10-19T20:22:54.515Z,920.3
2016-10-19T20:23:11.278Z,920.23
2016-10-19T20:23:28.039Z,920.25
2016-10-19T20:23:44.793Z,920.31
2016-10-19T20:24:01.634Z,920.27
2016-10-19T20:24:18.407Z,920.22
2016-10-19T20:24:35.213Z,920.26
2016-10-19T20:24:52.031Z,920.28
2016-10-19T20:25:08.781Z,920.21
2016-10-19T20:25:25.536Z,920.25
2016-10-19T20:25:42.258Z,920.27
2016-10-19T20:25:59.007Z,920.3
2016-10-19T20:26:15.734Z,920.28
2016-10-19T20:26:32.481Z,920.29
2016-10-19T20:26:49.226Z,920.19
2016-10-19T20:27:05.986Z,920.26
2016-10-19T20:27:22.771Z,920.22
2016-10-19T20:27:39.535Z,920.25
2016-10-19T20:27:56.274Z,920.26
2016-10-19T20:28:13.059Z,920.26
2016-10-19T20:28:30.329Z,920.25
2016-10-19T20:28:47.073Z,920.28
2016-10-19T20:29:03.910Z,920.29
2016-10-19T20:29:20.641Z,920.28
2016-10-19T20:29:37.397Z,920.27
2016-10-19T20:29:54.203Z,920.29
2016-10-19T20:30:10.968Z,920.28
2016-10-19T20:30:27.792Z,920.32
2016-10-19T20:30:44.589Z,920.32
2016-10-19T20:31:01.347Z,920.32
2016-10-19T20:31:18.111Z,920.31
2016-10-19T20:31:34.839Z,920.35
2016-10-19T20:31:51.607Z,920.36
2016-10-19T20:32:08.327Z,920.31
2016-10-19T20:32:25.081Z,920.31
2016-10-19T20:32:41.939Z,920.32
2016-10-19T20:32:58.671Z,920.27
2016-10-19T20:33:15.399Z,920.37
2016-10-19T20:33:32.651Z,920.4
2016-10-19T20:33:49.445Z,920.39
2016-10-19T20:34:06.264Z,920.38
2016-10-19T20:34:23.023Z,920.42
2016-10-19T20:34:39.783Z,920.38
2016-10-19T20:34:56.518Z,920.35
2016-10-19T20:35:13.305Z,920.43
2016-10-19T20:35:30.037Z,920.37
2016-10-19T20:35:46.782Z,920.4
2016-10-19T20:36:03.541Z,920.4
2016-10-19T20:36:20.260Z,920.37
2016-10-19T20:36:37.084Z,920.38
2016-10-19T20:36:53.833Z,920.39
2016-10-19T20:37:10.575Z,920.36
2016-10-19T20:37:27.334Z,920.36
2016-10-19T20:37:44.087Z,920.41
2016-10-19T20:38:00.884Z,920.4
2016-10-19T20:38:17.617Z,920.39
2016-10-19T20:38:34.360Z,920.42
2016-10-19T20:38:51.091Z,920.4
2016-10-19T20:39:07.945Z,920.38
2016-10-19T20:39:24.670Z,920.37
2016-10-19T20:39:41.512Z,920.41
2016-10-19T20:39:58.253Z,920.39
2016-10-19T20:40:15.016Z,920.4
2016-10-19T20:40:31.764Z,920.39
2016-10-19T20:40:48.528Z,920.39
2016-10-19T20:41:05.811Z,920.47
2016-10-19T20:41:22.557Z,920.39
2016-10-19T20:41:39.346Z,920.43
2016-10-19T20:41:56.091Z,920.42
2016-10-19T20:42:12.898Z,920.43
2016-10-19T20:42:29.658Z,920.45
2016-10-19T20:42:46.385Z,920.45
2016-10-19T20:43:03.145Z,920.45
2016-10-19T20:43:19.885Z,920.46
2016-10-19T20:43:36.639Z,920.47
2016-10-19T20:43:53.376Z,920.47
2016-10-19T20:44:10.143Z,920.48
2016-10-19T20:44:26.907Z,920.49
2016-10-19T20:44:43.683Z,920.51
2016-10-19T20:45:00.406Z,920.5
2016-10-19T20:45:17.170Z,920.52
2016-10-19T20:45:33.928Z,920.51
2016-10-19T20:45:50.688Z,920.52
2016-10-19T20:46:07.439Z,920.53
2016-10-19T20:46:24.183Z,920.56
2016-10-19T20:46:40.943Z,920.58
2016-10-19T20:46:57.701Z,920.59
2016-10-19T20:47:14.443Z,920.56
2016-10-19T20:47:31.186Z,920.58
2016-10-19T20:47:47.937Z,920.62
2016-10-19T20:48:04.693Z,920.6
2016-10-19T20:48:21.446Z,920.63
2016-10-19T20:48:38.211Z,920.64
2016-10-19T20:48:54.978Z,920.62
2016-10-19T20:49:11.730Z,920.61
2016-10-19T20:49:28.466Z,920.61
2016-10-19T20:49:45.229Z,920.6
2016-10-19T20:50:02.046Z,920.6
2016-10-19T20:50:18.780Z,920.63
2016-10-19T20:50:35.560Z,920.58
2016-10-19T20:50:52.337Z,920.6
2016-10-19T20:51:09.108Z,920.59
2016-10-19T20:51:25.859Z,920.54
2016-10-19T20:51:42.619Z,920.56
2016-10-19T20:51:59.377Z,920.57
2016-10-19T20:52:17.522Z,920.58
2016-10-19T20:52:34.295Z,920.57
2016-10-19T20:52:51.055Z,920.56
2016-10-19T20:53:07.827Z,920.58
2016-10-19T20:53:24.593Z,920.56
2016-10-19T20:53:41.333Z,920.55
2016-10-19T20:53:58.630Z,920.6
2016-10-19T20:54:15.476Z,920.6
2016-10-19T20:54:32.227Z,920.6
2016-10-19T20:54:48.958Z,920.59
2016-10-19T20:55:05.720Z,920.59
2016-10-19T20:55:22.518Z,920.59
2016-10-19T20:55:39.349Z,920.63
2016-10-19T20:55:56.610Z,920.59
2016-10-19T20:56:13.347Z,920.59
2016-10-19T20:56:30.134Z,920.61
2016-10-19T20:56:47.528Z,920.55
2016-10-19T20:57:04.815Z,920.62
2016-10-19T20:57:21.576Z,920.61
2016-10-19T20:57:38.835Z,920.68
2016-10-19T20:57:55.576Z,920.68
2016-10-19T20:58:12.321Z,920.7
2016-10-19T20:58:29.086Z,920.62
2016-10-19T20:58:45.880Z,920.69
2016-10-19T20:59:02.628Z,920.68
2016-10-19T20:59:19.475Z,920.69
2016-10-19T20:59:36.221Z,920.71
2016-10-19T20:59:53.077Z,920.67
2016-10-19T21:00:09.869Z,920.67
2016-10-19T21:00:41.114Z,920.74
2016-10-19T21:00:57.863Z,920.69
2016-10-19T21:01:14.651Z,920.67
2016-10-19T21:01:31.426Z,920.69
2016-10-19T21:01:48.165Z,920.71
2016-10-19T21:02:04.906Z,920.76
2016-10-19T21:02:21.645Z,920.75
2016-10-19T21:02:38.945Z,920.72
2016-10-19T21:02:55.692Z,920.79
2016-10-19T21:03:12.430Z,920.72
2016-10-19T21:03:29.161Z,920.75
2016-10-19T21:03:46.464Z,920.77
2016-10-19T21:04:03.211Z,920.78
2016-10-19T21:04:20.208Z,920.77
2016-10-19T21:04:36.995Z,920.76
2016-10-19T21:04:53.731Z,920.78
2016-10-19T21:05:10.494Z,920.8
2016-10-19T21:05:27.251Z,920.74
2016-10-19T21:05:44.001Z,920.76
2016-10-19T21:06:00.769Z,920.78
2016-10-19T21:06:17.573Z,920.8
2016-10-19T21:06:34.313Z,920.79
2016-10-19T21:06:51.591Z,920.79
2016-10-19T21:07:08.342Z,920.78
2016-10-19T21:07:25.103Z,920.8
2016-10-19T21:07:41.862Z,920.81
2016-10-19T21:07:59.167Z,920.81
2016-10-19T21:08:15.936Z,920.81
2016-10-19T21:08:32.679Z,920.81
2016-10-19T21:08:49.424Z,920.79
2016-10-19T21:09:06.183Z,920.8
2016-10-19T21:09:23.022Z,920.83
2016-10-19T21:09:39.779Z,920.86
2016-10-19T21:09:56.538Z,920.84
2016-10-19T21:10:13.294Z,920.83
2016-10-19T21:10:30.024Z,920.8
2016-10-19T21:10:46.745Z,920.8
2016-10-19T21:11:03.500Z,920.83
2016-10-19T21:11:20.253Z,920.88
2016-10-19T21:11:37.003Z,920.86
2016-10-19T21:11:53.760Z,920.83
2016-10-19T21:12:10.514Z,920.87
2016-10-19T21:12:27.266Z,920.85
2016-10-19T21:12:44.037Z,920.82
2016-10-19T21:13:00.797Z,920.81
2016-10-19T21:13:18.059Z,920.86
2016-10-19T21:13:34.816Z,920.89
2016-10-19T21:13:51.581Z,920.88
2016-10-19T21:14:08.330Z,920.88
2016-10-19T21:14:25.090Z,920.89
2016-10-19T21:14:41.824Z,920.82
2016-10-19T21:14:58.586Z,920.82
2016-10-19T21:15:15.390Z,920.86
2016-10-19T21:15:32.155Z,920.85
2016-10-19T21:15:48.908Z,920.89
2016-10-19T21:16:05.673Z,920.89
2016-10-19T21:16:22.423Z,920.89
2016-10-19T21:16:39.193Z,920.89
2016-10-19T21:16:55.978Z,920.88
2016-10-19T21:17:12.742Z,920.9
2016-10-19T21:17:29.502Z,920.9
2016-10-19T21:17:46.272Z,920.9
2016-10-19T21:18:03.512Z,920.9
2016-10-19T21:18:20.313Z,920.92
2016-10-19T21:18:37.218Z,920.94
2016-10-19T21:19:08.486Z,920.94
2016-10-19T21:19:25.387Z,920.97
2016-10-19T21:19:42.276Z,920.95
2016-10-19T21:19:59.023Z,920.94
2016-10-19T21:20:15.797Z,920.93
2016-10-19T21:20:32.542Z,920.97
2016-10-19T21:20:49.334Z,920.95
2016-10-19T21:21:06.090Z,920.96
2016-10-19T21:21:22.877Z,920.98
2016-10-19T21:21:39.667Z,921
2016-10-19T21:21:56.407Z,920.98
2016-10-19T21:22:13.664Z,921
2016-10-19T21:22:30.423Z,921.02
2016-10-19T21:22:47.157Z,921
2016-10-19T21:23:03.904Z,921.03
2016-10-19T21:23:20.659Z,921
2016-10-19T21:23:37.437Z,921.04
2016-10-19T21:23:54.190Z,921.05
2016-10-19T21:24:10.930Z,921.04
2016-10-19T21:24:28.326Z,921.03
2016-10-19T21:24:45.156Z,921.07
2016-10-19T21:25:02.099Z,921.05
2016-10-19T21:25:18.884Z,921.05
2016-10-19T21:25:35.640Z,921.05
2016-10-19T21:25:53.473Z,921.02
2016-10-19T21:26:10.240Z,921.07
2016-10-19T21:26:26.999Z,921.1
2016-10-19T21:26:43.763Z,921.05
2016-10-19T21:27:00.497Z,921.09
2016-10-19T21:27:17.251Z,921.1
2016-10-19T21:27:34.028Z,921.11
2016-10-19T21:27:50.793Z,921.09
2016-10-19T21:28:07.553Z,921.1
2016-10-19T21:28:24.287Z,921.11
2016-10-19T21:28:41.033Z,921.08
2016-10-19T21:28:57.781Z,921.09
2016-10-19T21:29:14.522Z,921.12
2016-10-19T21:29:31.388Z,921.11
2016-10-19T21:29:48.129Z,921.14
2016-10-19T21:30:04.888Z,921.12
2016-10-19T21:30:21.633Z,921.09
2016-10-19T21:30:38.553Z,921.1
2016-10-19T21:30:56.095Z,921.1
2016-10-19T21:31:13.087Z,921.12
2016-10-19T21:31:29.835Z,921.13
2016-10-19T21:31:46.623Z,921.14
2016-10-19T21:32:03.954Z,921.13
2016-10-19T21:32:35.207Z,921.13
2016-10-19T21:32:51.943Z,921.1
2016-10-19T21:33:09.055Z,921.1
2016-10-19T21:33:26.274Z,921.1
2016-10-19T21:33:43.357Z,921.07
2016-10-19T21:34:00.457Z,921.07
2016-10-19T21:34:17.380Z,921.08
2016-10-19T21:34:34.126Z,921.07
2016-10-19T21:34:50.884Z,921.09
2016-10-19T21:35:07.627Z,921.15
2016-10-19T21:35:24.390Z,921.12
2016-10-19T21:35:41.148Z,921.14
2016-10-19T21:35:57.960Z,921.13
2016-10-19T21:36:14.693Z,921.15
2016-10-19T21:36:31.440Z,921.14
2016-10-19T21:36:48.213Z,921.15
2016-10-19T21:37:04.957Z,921.15
2016-10-19T21:37:21.713Z,921.19
2016-10-19T21:37:38.545Z,921.17
2016-10-19T21:37:55.342Z,921.18
2016-10-19T21:38:12.087Z,921.19
2016-10-19T21:38:28.837Z,921.21
2016-10-19T21:38:46.302Z,921.18
2016-10-19T21:39:03.060Z,921.2
2016-10-19T21:39:19.818Z,921.19
2016-10-19T21:39:36.652Z,921.24
2016-10-19T21:39:53.402Z,921.22
2016-10-19T21:40:10.127Z,921.23
2016-10-19T21:40:26.859Z,921.23
2016-10-19T21:40:43.609Z,921.24
2016-10-19T21:41:00.386Z,921.25
2016-10-19T21:41:17.279Z,921.27
2016-10-19T21:41:34.645Z,921.28
2016-10-19T21:41:51.549Z,921.24
2016-10-19T21:42:09.067Z,921.27
2016-10-19T21:42:26.330Z,921.29
2016-10-19T21:42:43.083Z,921.25
2016-10-19T21:42:59.813Z,921.32
2016-10-19T21:43:16.558Z,921.26
2016-10-19T21:43:33.327Z,921.33
2016-10-19T21:43:50.065Z,921.28
2016-10-19T21:44:06.817Z,921.3
2016-10-19T21:44:24.047Z,921.29
2016-10-19T21:44:40.784Z,921.28
2016-10-19T21:44:57.548Z,921.33
2016-10-19T21:45:14.498Z,921.34
2016-10-19T21:45:31.241Z,921.29
2016-10-19T21:45:48.008Z,921.32
2016-10-19T21:46:04.813Z,921.33
2016-10-19T21:46:21.575Z,921.33
2016-10-19T21:46:38.371Z,921.31
2016-10-19T21:46:55.142Z,921.36
2016-10-19T21:47:11.905Z,921.33
2016-10-19T21:47:28.657Z,921.33
2016-10-19T21:47:45.411Z,921.32
2016-10-19T21:48:02.179Z,921.32
2016-10-19T21:48:18.949Z,921.31
2016-10-19T21:48:35.739Z,921.31
2016-10-19T21:48:52.490Z,921.33
2016-10-19T21:49:09.239Z,921.34
2016-10-19T21:49:26.005Z,921.35
2016-10-19T21:49:42.765Z,921.36
2016-10-19T21:49:59.570Z,921.37
2016-10-19T21:50:16.333Z,921.35
2016-10-19T21:50:33.072Z,921.33
2016-10-19T21:51:04.334Z,921.36
2016-10-19T21:51:21.062Z,921.38
2016-10-19T21:51:37.801Z,921.38
2016-10-19T21:51:54.593Z,921.41
2016-10-19T21:52:11.370Z,921.37
2016-10-19T21:52:28.124Z,921.36
2016-10-19T21:52:44.894Z,921.39
2016-10-19T21:53:01.659Z,921.38
2016-10-19T21:53:18.402Z,921.38
2016-10-19T21:53:35.161Z,921.37
2016-10-19T21:53:52.001Z,921.41
2016-10-19T21:54:08.811Z,921.4
2016-10-19T21:54:25.577Z,921.4
2016-10-19T21:54:42.552Z,921.43
2016-10-19T21:54:59.347Z,921.42
2016-10-19T21:55:16.110Z,921.41
2016-10-19T21:55:32.894Z,921.45
2016-10-19T21:55:49.665Z,921.43
2016-10-19T21:56:06.403Z,921.46
2016-10-19T21:56:23.736Z,921.43
2016-10-19T21:56:40.518Z,921.48
2016-10-19T21:56:57.312Z,921.49
2016-10-19T21:57:14.057Z,921.48
2016-10-19T21:57:30.835Z,921.48
2016-10-19T21:57:48.322Z,921.5
2016-10-19T21:58:05.089Z,921.46
2016-10-19T21:58:21.844Z,921.52
2016-10-19T21:58:38.589Z,921.48
2016-10-19T21:58:55.331Z,921.49
2016-10-19T21:59:12.109Z,921.51
2016-10-19T21:59:28.854Z,921.49
2016-10-19T21:59:45.608Z,921.55
2016-10-19T22:00:02.370Z,921.58
2016-10-19T22:00:19.142Z,921.57
2016-10-19T22:00:35.884Z,921.57
2016-10-19T22:00:52.642Z,921.58
2016-10-19T22:01:09.883Z,921.63
2016-10-19T22:01:26.618Z,921.57
2016-10-19T22:01:43.352Z,921.62
2016-10-19T22:02:00.104Z,921.59
2016-10-19T22:02:16.878Z,921.59
2016-10-19T22:02:33.624Z,921.58
2016-10-19T22:02:50.396Z,921.65
2016-10-19T22:03:07.150Z,921.63
2016-10-19T22:03:23.884Z,921.63
2016-10-19T22:03:40.619Z,921.63
2016-10-19T22:03:57.386Z,921.63
2016-10-19T22:04:14.142Z,921.62
2016-10-19T22:04:31.418Z,921.69
2016-10-19T22:04:48.185Z,921.62
2016-10-19T22:05:05.016Z,921.65
2016-10-19T22:05:21.756Z,921.66
2016-10-19T22:05:38.517Z,921.66
2016-10-19T22:05:55.313Z,921.67
2016-10-19T22:06:12.077Z,921.66
2016-10-19T22:06:28.804Z,921.67
2016-10-19T22:06:45.561Z,921.68
2016-10-19T22:07:02.321Z,921.66
2016-10-19T22:07:19.086Z,921.69
2016-10-19T22:07:35.819Z,921.68
2016-10-19T22:07:52.598Z,921.66
2016-10-19T22:08:09.350Z,921.67
2016-10-19T22:08:26.120Z,921.68
2016-10-19T22:08:42.910Z,921.66
2016-10-19T22:08:59.658Z,921.69
2016-10-19T22:09:16.410Z,921.68
2016-10-19T22:09:33.141Z,921.65
2016-10-19T22:09:50.007Z,921.67
2016-10-19T22:10:06.799Z,921.72
2016-10-19T22:10:24.060Z,921.71
2016-10-19T22:10:41.013Z,921.71
2016-10-19T22:10:58.263Z,921.69
2016-10-19T22:11:14.981Z,921.69
2016-10-19T22:11:31.734Z,921.73
2016-10-19T22:11:48.481Z,921.7
2016-10-19T22:12:05.207Z,921.68
2016-10-19T22:12:22.516Z,921.7
2016-10-19T22:12:39.259Z,921.75
2016-10-19T22:12:56.117Z,921.7
2016-10-19T22:13:12.836Z,921.74
2016-10-19T22:13:29.584Z,921.73
2016-10-19T22:13:46.347Z,921.73
2016-10-19T22:14:03.107Z,921.72
2016-10-19T22:14:19.850Z,921.73
2016-10-19T22:14:36.603Z,921.71
2016-10-19T22:14:53.329Z,921.73
2016-10-19T22:15:10.083Z,921.7
2016-10-19T22:15:26.832Z,921.72
2016-10-19T22:15:43.709Z,921.7
2016-10-19T22:16:00.471Z,921.71
2016-10-19T22:16:17.210Z,921.71
2016-10-19T22:16:33.958Z,921.7
2016-10-19T22:16:50.697Z,921.68
2016-10-19T22:17:07.696Z,921.7
2016-10-19T22:17:24.482Z,921.67
2016-10-19T22:17:41.290Z,921.69
2016-10-19T22:17:58.060Z,921.65
2016-10-19T22:18:15.365Z,921.66
2016-10-19T22:18:32.148Z,921.67
2016-10-19T22:18:48.952Z,921.68
2016-10-19T22:19:05.721Z,921.67
2016-10-19T22:19:22.458Z,921.63
2016-10-19T22:19:39.237Z,921.65
2016-10-19T22:19:56.054Z,921.67
2016-10-19T22:20:12.811Z,921.66
2016-10-19T22:20:29.583Z,921.69
2016-10-19T22:20:46.371Z,921.63
2016-10-19T22:21:03.135Z,921.68
2016-10-19T22:21:19.946Z,921.67
2016-10-19T22:21:37.237Z,921.66
2016-10-19T22:21:53.985Z,921.68
2016-10-19T22:22:10.731Z,921.67
2016-10-19T22:22:27.474Z,921.69
2016-10-19T22:22:44.328Z,921.68
2016-10-19T22:23:01.116Z,921.66
2016-10-19T22:23:17.891Z,921.69
2016-10-19T22:23:34.640Z,921.67
2016-10-19T22:23:51.480Z,921.72
2016-10-19T22:24:08.248Z,921.69
2016-10-19T22:24:24.998Z,921.7
2016-10-19T22:24:41.734Z,921.65
2016-10-19T22:24:58.619Z,921.69
2016-10-19T22:25:15.362Z,921.71
2016-10-19T22:25:32.131Z,921.69
2016-10-19T22:25:48.877Z,921.7
2016-10-19T22:26:05.638Z,921.7
2016-10-19T22:26:22.409Z,921.71
2016-10-19T22:26:39.210Z,921.74
2016-10-19T22:26:56.012Z,921.71
2016-10-19T22:27:12.851Z,921.71
2016-10-19T22:27:29.615Z,921.72
2016-10-19T22:27:46.387Z,921.7
2016-10-19T22:28:03.156Z,921.75
2016-10-19T22:28:19.929Z,921.76
2016-10-19T22:28:36.684Z,921.76
2016-10-19T22:28:53.942Z,921.74
2016-10-19T22:29:11.223Z,921.74
2016-10-19T22:29:28.033Z,921.73
2016-10-19T22:29:44.822Z,921.79
2016-10-19T22:30:01.563Z,921.76
2016-10-19T22:30:18.334Z,921.79
2016-10-19T22:30:35.097Z,921.78
2016-10-19T22:30:51.830Z,921.79
2016-10-19T22:31:08.589Z,921.8
2016-10-19T22:31:25.359Z,921.78
2016-10-19T22:31:42.136Z,921.82
2016-10-19T22:31:58.932Z,921.84
2016-10-19T22:32:15.696Z,921.83
2016-10-19T22:32:32.433Z,921.84
2016-10-19T22:32:49.191Z,921.86
2016-10-19T22:33:05.976Z,921.85
2016-10-19T22:33:22.727Z,921.89
2016-10-19T22:33:39.510Z,921.85
2016-10-19T22:33:56.276Z,921.86
2016-10-19T22:34:13.022Z,921.87
2016-10-19T22:34:29.789Z,921.85
2016-10-19T22:34:46.541Z,921.83
2016-10-19T22:35:03.337Z,921.88
2016-10-19T22:35:20.097Z,921.89
2016-10-19T22:35:36.856Z,921.88
2016-10-19T22:35:53.608Z,921.93
2016-10-19T22:36:10.352Z,921.84
2016-10-19T22:36:27.106Z,921.84
2016-10-19T22:36:43.845Z,921.86
2016-10-19T22:37:00.590Z,921.87
2016-10-19T22:37:17.339Z,921.9
2016-10-19T22:37:34.141Z,921.88
2016-10-19T22:37:50.922Z,921.87
2016-10-19T22:38:07.655Z,921.89
2016-10-19T22:38:24.393Z,921.92
2016-10-19T22:38:41.166Z,921.85
2016-10-19T22:38:57.942Z,921.92
2016-10-19T22:39:14.718Z,921.92
2016-10-19T22:39:31.483Z,921.96
2016-10-19T22:39:48.242Z,921.89
2016-10-19T22:40:05.615Z,921.9
2016-10-19T22:40:22.365Z,921.95
2016-10-19T22:40:39.137Z,921.93
2016-10-19T22:40:55.894Z,921.93
2016-10-19T22:41:12.636Z,921.92
2016-10-19T22:41:29.914Z,921.92
2016-10-19T22:41:46.692Z,921.98
2016-10-19T22:42:03.932Z,922.01
2016-10-19T22:42:20.668Z,921.98
2016-10-19T22:42:38.005Z,921.95
2016-10-19T22:42:54.761Z,921.98
2016-10-19T22:43:11.540Z,922.01
2016-10-19T22:43:28.285Z,921.95
2016-10-19T22:43:45.074Z,921.96
2016-10-19T22:44:01.855Z,921.96
2016-10-19T22:44:19.131Z,921.97
2016-10-19T22:44:35.979Z,921.97
2016-10-19T22:44:52.724Z,921.97
2016-10-19T22:45:09.472Z,921.98
2016-10-19T22:45:26.212Z,921.95
2016-10-19T22:45:42.966Z,921.96
2016-10-19T22:46:00.211Z,921.96
2016-10-19T22:46:16.986Z,921.98
2016-10-19T22:46:33.765Z,921.98
2016-10-19T22:46:50.564Z,921.95
2016-10-19T22:47:07.310Z,921.96
2016-10-19T22:47:24.069Z,921.95